createdAt,value
2022-11-10T00:00:46.729Z,9.40
2022-11-10T00:03:13.439Z,9.30
2022-11-10T00:05:39.998Z,9.30
2022-11-10T00:08:06.956Z,9.30
2022-11-10T00:10:33.590Z,9.40
2022-11-10T00:13:03.162Z,9.30
2022-11-10T00:15:48.444Z,9.30
2022-11-10T00:18:15.011Z,9.30
2022-11-10T00:20:41.561Z,9.20
2022-11-10T00:23:08.156Z,9.20
2022-11-10T00:25:34.759Z,9.20
2022-11-10T00:28:01.302Z,9.10
2022-11-10T00:30:27.850Z,9.10
2022-11-10T00:32:54.399Z,9.10
2022-11-10T00:35:20.922Z,9.10
2022-11-10T00:37:48.858Z,9.10
2022-11-10T00:40:15.387Z,9.10
2022-11-10T00:42:41.944Z,9.10
2022-11-10T00:45:08.712Z,9.10
2022-11-10T00:47:35.256Z,9.00
2022-11-10T00:50:01.787Z,9.00
2022-11-10T00:52:28.363Z,9.00
2022-11-10T00:54:54.910Z,9.10
2022-11-10T00:57:21.459Z,9.10
2022-11-10T00:59:48.012Z,9.10
2022-11-10T01:02:14.566Z,9.10
2022-11-10T01:04:41.128Z,9.10
2022-11-10T01:07:07.708Z,9.10
2022-11-10T01:09:34.273Z,9.10
2022-11-10T01:12:00.824Z,9.10
2022-11-10T01:14:27.371Z,9.10
2022-11-10T01:16:53.935Z,9.10
2022-11-10T01:19:20.478Z,9.10
2022-11-10T01:21:47.018Z,9.10
2022-11-10T01:24:13.565Z,9.10
2022-11-10T01:26:40.165Z,9.10
2022-11-10T01:29:06.730Z,9.10
2022-11-10T01:31:33.287Z,9.00
2022-11-10T01:34:00.261Z,9.00
2022-11-10T01:36:26.867Z,9.00
2022-11-10T01:38:53.451Z,8.90
2022-11-10T01:41:19.994Z,8.90
2022-11-10T01:43:46.561Z,8.90
2022-11-10T01:46:13.293Z,8.90
2022-11-10T01:48:59.255Z,8.90
2022-11-10T01:51:28.814Z,8.80
2022-11-10T01:53:59.417Z,8.80
2022-11-10T01:56:26.009Z,8.80
2022-11-10T01:58:57.808Z,8.80
2022-11-10T02:01:24.339Z,8.70
2022-11-10T02:03:51.864Z,8.70
2022-11-10T02:06:18.922Z,8.70
2022-11-10T02:08:45.546Z,8.80
2022-11-10T02:11:12.099Z,8.70
2022-11-10T02:13:38.734Z,8.80
2022-11-10T02:16:05.339Z,8.80
2022-11-10T02:18:31.887Z,8.90
2022-11-10T02:20:58.457Z,8.90
2022-11-10T02:23:31.335Z,8.90
2022-11-10T02:25:57.867Z,8.90
2022-11-10T02:28:24.583Z,8.80
2022-11-10T02:30:51.231Z,8.80
2022-11-10T02:33:17.859Z,8.70
2022-11-10T02:35:44.789Z,8.70
2022-11-10T02:38:11.347Z,8.70
2022-11-10T02:40:37.880Z,8.70
2022-11-10T02:43:04.641Z,8.70
2022-11-10T02:45:31.168Z,8.70
2022-11-10T02:47:57.719Z,8.70
2022-11-10T02:50:24.251Z,8.70
2022-11-10T02:52:50.813Z,8.70
2022-11-10T02:55:17.338Z,8.70
2022-11-10T02:57:43.901Z,8.80
2022-11-10T03:00:10.734Z,8.80
2022-11-10T03:02:37.275Z,8.70
2022-11-10T03:05:04.011Z,8.80
2022-11-10T03:07:30.551Z,8.70
2022-11-10T03:09:57.101Z,8.70
2022-11-10T03:12:23.636Z,8.70
2022-11-10T03:14:50.178Z,8.80
2022-11-10T03:17:16.715Z,8.80
2022-11-10T03:19:43.257Z,8.90
2022-11-10T03:22:09.796Z,8.90
2022-11-10T03:24:36.352Z,8.90
2022-11-10T03:27:02.901Z,8.90
2022-11-10T03:29:29.486Z,8.90
2022-11-10T03:31:56.068Z,8.80
2022-11-10T03:34:22.638Z,8.80
2022-11-10T03:36:49.168Z,8.80
2022-11-10T03:39:16.219Z,8.80
2022-11-10T03:41:42.808Z,8.90
2022-11-10T03:44:09.361Z,8.90
2022-11-10T03:46:35.912Z,8.90
2022-11-10T03:49:04.913Z,8.90
2022-11-10T03:51:31.450Z,8.80
2022-11-10T03:53:58.006Z,8.80
2022-11-10T03:56:24.546Z,8.70
2022-11-10T03:58:51.087Z,8.60
2022-11-10T04:01:17.793Z,8.50
2022-11-10T04:03:48.772Z,8.50
2022-11-10T04:06:36.684Z,8.40
2022-11-10T04:09:03.496Z,8.40
2022-11-10T04:11:48.778Z,8.40
2022-11-10T04:14:34.192Z,8.40
2022-11-10T04:17:01.116Z,8.30
2022-11-10T04:19:27.751Z,8.30
2022-11-10T04:21:54.289Z,8.40
2022-11-10T04:24:20.888Z,8.30
2022-11-10T04:26:48.566Z,8.30
2022-11-10T04:29:16.288Z,8.20
2022-11-10T04:31:43.364Z,8.20
2022-11-10T04:34:11.360Z,8.20
2022-11-10T04:36:38.361Z,8.10
2022-11-10T04:39:05.120Z,8.10
2022-11-10T04:41:31.741Z,8.00
2022-11-10T04:43:58.805Z,8.00
2022-11-10T04:46:26.746Z,7.90
2022-11-10T04:48:53.477Z,8.00
2022-11-10T04:51:20.649Z,7.90
2022-11-10T04:53:47.382Z,7.90
2022-11-10T04:56:17.759Z,7.90
2022-11-10T04:58:44.379Z,7.80
2022-11-10T05:01:14.211Z,7.80
2022-11-10T05:03:41.076Z,7.80
2022-11-10T05:06:07.652Z,7.70
2022-11-10T05:08:34.206Z,7.70
2022-11-10T05:11:00.763Z,7.70
2022-11-10T05:13:27.395Z,7.70
2022-11-10T05:15:53.963Z,7.70
2022-11-10T05:18:20.522Z,7.70
2022-11-10T05:20:47.084Z,7.70
2022-11-10T05:23:32.420Z,7.70
2022-11-10T05:25:59.014Z,7.70
2022-11-10T05:28:25.610Z,7.60
2022-11-10T05:30:52.334Z,7.60
2022-11-10T05:33:19.295Z,7.60
2022-11-10T05:35:46.132Z,7.50
2022-11-10T05:38:13.006Z,7.50
2022-11-10T05:40:39.562Z,7.50
2022-11-10T05:43:06.107Z,7.40
2022-11-10T05:45:32.648Z,7.40
2022-11-10T05:47:59.191Z,7.40
2022-11-10T05:50:25.755Z,7.40
2022-11-10T05:52:52.790Z,7.40
2022-11-10T05:55:20.162Z,7.40
2022-11-10T05:57:47.213Z,7.40
2022-11-10T06:00:14.199Z,7.40
2022-11-10T06:02:40.745Z,7.40
2022-11-10T06:05:07.467Z,7.40
2022-11-10T06:07:34.155Z,7.40
2022-11-10T06:10:00.704Z,7.30
2022-11-10T06:12:30.282Z,7.30
2022-11-10T06:14:57.889Z,7.30
2022-11-10T06:17:27.495Z,7.30
2022-11-10T06:19:54.072Z,7.30
2022-11-10T06:22:20.639Z,7.30
2022-11-10T06:24:47.198Z,7.30
2022-11-10T06:27:13.744Z,7.30
2022-11-10T06:29:40.297Z,7.40
2022-11-10T06:32:06.836Z,7.30
2022-11-10T06:34:33.403Z,7.30
2022-11-10T06:36:59.992Z,7.40
2022-11-10T06:39:26.554Z,7.40
2022-11-10T06:41:53.124Z,7.40
2022-11-10T06:44:19.678Z,7.40
2022-11-10T06:46:46.316Z,7.50
2022-11-10T06:49:12.863Z,7.50
2022-11-10T06:51:39.397Z,7.50
2022-11-10T06:54:06.074Z,7.50
2022-11-10T06:56:32.657Z,7.50
2022-11-10T06:58:59.292Z,7.50
2022-11-10T07:01:26.651Z,7.50
2022-11-10T07:04:18.259Z,7.60
2022-11-10T07:06:40.089Z,7.60
2022-11-10T07:09:07.019Z,7.60
2022-11-10T07:11:33.580Z,7.70
2022-11-10T07:14:00.136Z,7.70
2022-11-10T07:16:26.675Z,7.80
2022-11-10T07:18:53.222Z,7.90
2022-11-10T07:21:19.772Z,8.00
2022-11-10T07:23:46.836Z,8.00
2022-11-10T07:26:13.661Z,8.10
2022-11-10T07:28:40.240Z,8.20
2022-11-10T07:31:06.784Z,8.30
2022-11-10T07:33:33.338Z,8.30
2022-11-10T07:36:00.511Z,8.50
2022-11-10T07:38:27.067Z,8.60
2022-11-10T07:40:53.723Z,8.60
2022-11-10T07:43:20.874Z,8.70
2022-11-10T07:45:48.885Z,8.80
2022-11-10T07:48:15.434Z,8.80
2022-11-10T07:50:42.085Z,8.90
2022-11-10T07:53:10.205Z,8.90
2022-11-10T07:55:37.237Z,9.10
2022-11-10T07:58:03.775Z,9.00
2022-11-10T08:00:30.343Z,9.10
2022-11-10T08:03:26.759Z,9.10
2022-11-10T08:05:53.376Z,9.10
2022-11-10T08:08:19.917Z,9.20
2022-11-10T08:10:46.498Z,9.30
2022-11-10T08:13:13.181Z,9.40
2022-11-10T08:15:39.837Z,9.50
2022-11-10T08:18:07.319Z,9.60
2022-11-10T08:20:34.145Z,9.80
2022-11-10T08:23:01.358Z,10.00
2022-11-10T08:25:33.197Z,10.20
2022-11-10T08:28:10.872Z,10.20
2022-11-10T08:30:38.056Z,10.40
2022-11-10T08:33:05.133Z,10.50
2022-11-10T08:35:31.971Z,10.60
2022-11-10T08:37:58.538Z,10.60
2022-11-10T08:40:27.517Z,10.60
2022-11-10T08:43:00.682Z,10.60
2022-11-10T08:45:27.263Z,10.60
2022-11-10T08:48:00.312Z,10.70
2022-11-10T08:50:27.227Z,10.70
2022-11-10T08:52:53.889Z,10.70
2022-11-10T08:55:20.492Z,10.90
2022-11-10T08:57:47.397Z,10.90
2022-11-10T09:00:17.379Z,11.00
2022-11-10T09:02:43.945Z,11.10
2022-11-10T09:05:10.587Z,11.10
2022-11-10T09:07:44.078Z,11.20
2022-11-10T09:10:14.100Z,11.30
2022-11-10T09:12:41.238Z,11.40
2022-11-10T09:15:08.002Z,11.40
2022-11-10T09:17:34.607Z,11.50
2022-11-10T09:20:01.252Z,11.30
2022-11-10T09:22:27.908Z,11.30
2022-11-10T09:24:54.468Z,11.40
2022-11-10T09:27:21.041Z,11.60
2022-11-10T09:29:47.596Z,11.70
2022-11-10T09:32:14.138Z,11.80
2022-11-10T09:34:40.705Z,11.90
2022-11-10T09:37:07.387Z,11.90
2022-11-10T09:39:33.963Z,12.00
2022-11-10T09:42:00.547Z,12.20
2022-11-10T09:44:27.693Z,12.40
2022-11-10T09:46:57.754Z,12.60
2022-11-10T09:49:33.518Z,12.80
2022-11-10T09:52:00.401Z,12.90
2022-11-10T09:54:29.053Z,13.00
2022-11-10T09:56:56.793Z,13.00
2022-11-10T09:59:25.300Z,12.90
2022-11-10T10:01:54.896Z,12.90
2022-11-10T10:04:44.744Z,13.00
2022-11-10T10:07:16.788Z,13.20
2022-11-10T10:09:46.403Z,13.40
2022-11-10T10:12:12.903Z,13.70
2022-11-10T10:14:45.532Z,13.90
2022-11-10T10:17:18.543Z,14.10
2022-11-10T10:19:48.891Z,14.00
2022-11-10T10:22:34.119Z,13.80
2022-11-10T10:25:02.163Z,13.60
2022-11-10T10:27:29.043Z,13.30
2022-11-10T10:29:55.590Z,13.10
2022-11-10T10:32:22.582Z,12.90
2022-11-10T10:34:49.152Z,13.10
2022-11-10T10:37:22.555Z,13.30
2022-11-10T10:39:49.682Z,13.50
2022-11-10T10:42:17.758Z,13.60
2022-11-10T10:45:04.281Z,13.70
2022-11-10T10:47:35.847Z,13.70
2022-11-10T10:50:21.752Z,13.80
2022-11-10T10:53:07.248Z,13.70
2022-11-10T10:55:34.201Z,13.50
2022-11-10T10:58:05.622Z,13.60
2022-11-10T11:00:33.178Z,13.70
2022-11-10T11:03:04.794Z,13.90
2022-11-10T11:05:31.552Z,14.10
2022-11-10T11:07:59.323Z,14.30
2022-11-10T11:10:26.856Z,14.50
2022-11-10T11:12:53.387Z,14.60
2022-11-10T11:15:26.754Z,14.50
2022-11-10T11:17:53.827Z,14.50
2022-11-10T11:20:20.377Z,14.30
2022-11-10T11:23:05.748Z,14.10
2022-11-10T11:25:33.609Z,14.00
2022-11-10T11:28:04.928Z,13.90
2022-11-10T11:30:34.344Z,13.70
2022-11-10T11:33:14.561Z,13.70
2022-11-10T11:35:50.392Z,13.60
2022-11-10T11:38:23.216Z,13.70
2022-11-10T11:40:53.973Z,13.90
2022-11-10T11:43:44.717Z,13.80
2022-11-10T11:46:14.441Z,13.90
2022-11-10T11:48:50.199Z,14.00
2022-11-10T11:51:21.643Z,14.00
2022-11-10T11:53:51.228Z,14.10
2022-11-10T11:56:22.231Z,14.10
2022-11-10T11:58:52.108Z,14.10
2022-11-10T12:01:23.908Z,14.10
2022-11-10T12:04:06.412Z,14.00
2022-11-10T12:06:47.893Z,13.90
2022-11-10T12:09:14.521Z,13.80
2022-11-10T12:11:44.161Z,13.70
2022-11-10T12:14:16.820Z,13.60
2022-11-10T12:16:45.060Z,13.50
2022-11-10T12:19:14.771Z,13.40
2022-11-10T12:22:00.107Z,13.40
2022-11-10T12:24:33.533Z,13.60
2022-11-10T12:27:04.774Z,13.70
2022-11-10T12:29:36.060Z,13.70
2022-11-10T12:32:23.264Z,13.70
2022-11-10T12:34:57.437Z,13.60
2022-11-10T12:37:28.158Z,13.40
2022-11-10T12:39:58.462Z,13.40
2022-11-10T12:42:25.954Z,13.30
2022-11-10T12:45:00.200Z,13.40
2022-11-10T12:47:28.465Z,13.40
2022-11-10T12:50:04.369Z,13.40
2022-11-10T12:52:33.130Z,13.50
2022-11-10T12:54:59.689Z,13.50
2022-11-10T12:57:26.681Z,13.40
2022-11-10T13:00:00.616Z,13.40
2022-11-10T13:02:28.758Z,13.40
2022-11-10T13:05:24.733Z,13.40
2022-11-10T13:07:51.554Z,13.50
2022-11-10T13:10:18.261Z,13.60
2022-11-10T13:13:03.259Z,13.50
2022-11-10T13:15:38.941Z,13.40
2022-11-10T13:18:05.716Z,13.30
2022-11-10T13:20:41.152Z,13.30
2022-11-10T13:23:26.524Z,13.20
2022-11-10T13:25:54.068Z,13.00
2022-11-10T13:28:39.451Z,12.90
2022-11-10T13:31:24.914Z,12.90
2022-11-10T13:34:10.940Z,13.00
2022-11-10T13:36:39.134Z,13.00
2022-11-10T13:39:23.975Z,12.90
2022-11-10T13:41:53.671Z,12.90
2022-11-10T13:44:24.231Z,12.90
2022-11-10T13:46:53.799Z,12.90
2022-11-10T13:49:20.335Z,12.90
2022-11-10T13:51:53.280Z,12.90
2022-11-10T13:54:24.347Z,12.90
2022-11-10T13:57:03.184Z,12.90
2022-11-10T13:59:30.355Z,12.90
2022-11-10T14:02:15.744Z,12.90
2022-11-10T14:04:42.822Z,12.90
2022-11-10T14:07:13.310Z,12.70
2022-11-10T14:09:44.466Z,12.70
2022-11-10T14:12:15.638Z,12.70
2022-11-10T14:15:00.459Z,12.70
2022-11-10T14:17:27.858Z,12.60
2022-11-10T14:19:54.455Z,12.70
2022-11-10T14:22:27.239Z,12.70
2022-11-10T14:24:55.555Z,12.70
2022-11-10T14:27:23.319Z,12.70
2022-11-10T14:29:49.857Z,12.60
2022-11-10T14:32:18.759Z,12.70
2022-11-10T14:34:47.406Z,12.70
2022-11-10T14:37:14.828Z,12.60
2022-11-10T14:39:41.376Z,12.60
2022-11-10T14:42:07.904Z,12.50
2022-11-10T14:44:34.793Z,12.40
2022-11-10T14:47:37.610Z,12.40
2022-11-10T14:50:05.282Z,12.40
2022-11-10T14:52:31.875Z,12.40
2022-11-10T14:54:58.409Z,12.30
2022-11-10T14:57:24.962Z,12.30
2022-11-10T14:59:51.632Z,12.20
2022-11-10T15:02:18.367Z,12.20
2022-11-10T15:04:46.243Z,12.10
2022-11-10T15:07:13.137Z,12.10
2022-11-10T15:09:39.884Z,12.00
2022-11-10T15:12:07.509Z,11.90
2022-11-10T15:14:41.088Z,11.90
2022-11-10T15:17:17.875Z,11.90
2022-11-10T15:19:48.502Z,11.80
2022-11-10T15:22:22.204Z,11.80
2022-11-10T15:24:48.797Z,11.70
2022-11-10T15:27:24.592Z,11.70
2022-11-10T15:29:51.138Z,11.60
2022-11-10T15:32:21.458Z,11.50
2022-11-10T15:34:48.147Z,11.40
2022-11-10T15:37:20.468Z,11.40
2022-11-10T15:39:47.055Z,11.30
2022-11-10T15:42:21.339Z,11.20
2022-11-10T15:44:47.945Z,11.20
2022-11-10T15:47:15.008Z,11.10
2022-11-10T15:49:41.549Z,11.10
2022-11-10T15:52:18.650Z,11.00
2022-11-10T15:54:45.641Z,11.00
2022-11-10T15:57:15.255Z,11.00
2022-11-10T15:59:41.841Z,10.90
2022-11-10T16:02:34.843Z,10.80
2022-11-10T16:05:01.396Z,10.80
2022-11-10T16:07:27.933Z,10.80
2022-11-10T16:09:54.488Z,10.80
2022-11-10T16:12:21.284Z,10.80
2022-11-10T16:14:48.598Z,10.80
2022-11-10T16:17:15.875Z,10.70
2022-11-10T16:19:42.428Z,10.60
2022-11-10T16:22:09.675Z,10.60
2022-11-10T16:24:36.238Z,10.50
2022-11-10T16:27:04.292Z,10.50
2022-11-10T16:29:31.185Z,10.40
2022-11-10T16:31:57.714Z,10.50
2022-11-10T16:34:24.269Z,10.40
2022-11-10T16:36:51.199Z,10.40
2022-11-10T16:39:17.842Z,10.50
2022-11-10T16:41:44.379Z,10.40
2022-11-10T16:44:11.905Z,10.40
2022-11-10T16:46:38.530Z,10.40
2022-11-10T16:49:05.234Z,10.30
2022-11-10T16:51:42.937Z,10.40
2022-11-10T16:54:12.276Z,10.30
2022-11-10T16:56:38.868Z,10.30
2022-11-10T16:59:05.414Z,10.30
2022-11-10T17:01:33.185Z,10.20
2022-11-10T17:04:00.439Z,10.30
2022-11-10T17:06:27.378Z,10.20
2022-11-10T17:08:54.331Z,10.10
2022-11-10T17:11:21.102Z,10.10
2022-11-10T17:13:47.649Z,10.10
2022-11-10T17:16:17.793Z,10.00
2022-11-10T17:18:44.328Z,10.00
2022-11-10T17:21:10.880Z,10.00
2022-11-10T17:23:37.534Z,9.90
2022-11-10T17:26:04.353Z,9.90
2022-11-10T17:28:30.971Z,9.80
2022-11-10T17:30:57.938Z,9.80
2022-11-10T17:33:24.988Z,9.80
2022-11-10T17:35:52.029Z,9.80
2022-11-10T17:38:21.582Z,9.70
2022-11-10T17:40:48.177Z,9.70
2022-11-10T17:43:14.758Z,9.60
2022-11-10T17:45:41.313Z,9.50
2022-11-10T17:48:07.892Z,9.50
2022-11-10T17:50:34.772Z,9.50
2022-11-10T17:53:01.843Z,9.40
2022-11-10T17:55:33.770Z,9.50
2022-11-10T17:58:00.888Z,9.40
2022-11-10T18:00:27.446Z,9.50
2022-11-10T18:02:57.015Z,9.50
2022-11-10T18:05:23.582Z,9.40
2022-11-10T18:07:51.080Z,9.40
2022-11-10T18:10:17.831Z,9.40
2022-11-10T18:12:45.024Z,9.30
2022-11-10T18:15:14.990Z,9.30
2022-11-10T18:17:41.561Z,9.40
2022-11-10T18:20:11.332Z,9.40
2022-11-10T18:22:37.955Z,9.40
2022-11-10T18:25:04.984Z,9.50
2022-11-10T18:27:31.522Z,9.40
2022-11-10T18:29:58.076Z,9.50
2022-11-10T18:32:24.619Z,9.40
2022-11-10T18:34:51.198Z,9.50
2022-11-10T18:37:17.792Z,9.50
2022-11-10T18:39:45.180Z,9.50
2022-11-10T18:42:11.730Z,9.40
2022-11-10T18:44:38.572Z,9.50
2022-11-10T18:47:07.821Z,9.50
2022-11-10T18:49:37.552Z,9.50
2022-11-10T18:52:04.176Z,9.50
2022-11-10T18:54:30.711Z,9.50
2022-11-10T18:56:57.324Z,9.40
2022-11-10T18:59:24.080Z,9.40
2022-11-10T19:01:51.062Z,9.40
2022-11-10T19:04:17.665Z,9.40
2022-11-10T19:06:44.272Z,9.30
2022-11-10T19:09:10.943Z,9.30
2022-11-10T19:11:37.830Z,9.30
2022-11-10T19:14:05.268Z,9.20
2022-11-10T19:16:31.937Z,9.10
2022-11-10T19:18:58.496Z,9.10
2022-11-10T19:21:27.491Z,9.10
2022-11-10T19:23:54.974Z,9.00
2022-11-10T19:26:23.057Z,9.00
2022-11-10T19:28:49.834Z,9.00
2022-11-10T19:31:17.180Z,9.00
2022-11-10T19:33:44.084Z,8.90
2022-11-10T19:36:14.149Z,8.90
2022-11-10T19:38:40.957Z,8.90
2022-11-10T19:41:09.067Z,8.90
2022-11-10T19:43:35.613Z,8.90
2022-11-10T19:46:03.083Z,8.90
2022-11-10T19:48:32.812Z,8.90
2022-11-10T19:51:00.136Z,8.80
2022-11-10T19:53:26.862Z,8.80
2022-11-10T19:55:53.487Z,8.80
2022-11-10T19:58:20.046Z,8.80
2022-11-10T20:00:47.299Z,8.80
2022-11-10T20:03:15.295Z,8.80
2022-11-10T20:05:42.563Z,8.90
2022-11-10T20:08:12.106Z,8.90
2022-11-10T20:10:39.223Z,8.80
2022-11-10T20:13:06.115Z,8.80
2022-11-10T20:15:32.897Z,8.80
2022-11-10T20:17:59.422Z,8.70
2022-11-10T20:20:25.986Z,8.70
2022-11-10T20:22:52.523Z,8.70
2022-11-10T20:25:19.070Z,8.70
2022-11-10T20:27:45.615Z,8.70
2022-11-10T20:30:12.195Z,8.60
2022-11-10T20:32:38.857Z,8.60
2022-11-10T20:35:05.651Z,8.60
2022-11-10T20:37:32.964Z,8.50
2022-11-10T20:39:59.563Z,8.60
2022-11-10T20:42:26.124Z,8.60
2022-11-10T20:44:52.652Z,8.60
2022-11-10T20:47:19.708Z,8.60
2022-11-10T20:49:46.302Z,8.60
2022-11-10T20:52:12.846Z,8.60
2022-11-10T20:54:39.907Z,8.60
2022-11-10T20:57:06.529Z,8.60
2022-11-10T20:59:33.184Z,8.60
2022-11-10T21:01:59.766Z,8.50
2022-11-10T21:04:26.494Z,8.50
2022-11-10T21:06:53.064Z,8.50
2022-11-10T21:09:20.173Z,8.50
2022-11-10T21:12:05.435Z,8.50
2022-11-10T21:14:31.968Z,8.50
2022-11-10T21:16:58.510Z,8.50
2022-11-10T21:19:25.072Z,8.50
2022-11-10T21:21:52.291Z,8.50
2022-11-10T21:24:18.832Z,8.50
2022-11-10T21:26:45.395Z,8.50
2022-11-10T21:29:11.939Z,8.50
2022-11-10T21:31:38.551Z,8.50
2022-11-10T21:34:05.180Z,8.50
2022-11-10T21:36:31.784Z,8.50
2022-11-10T21:38:58.505Z,8.50
2022-11-10T21:41:25.436Z,8.40
2022-11-10T21:43:51.964Z,8.40
2022-11-10T21:46:18.754Z,8.40
2022-11-10T21:48:45.314Z,8.50
2022-11-10T21:51:12.413Z,8.40
2022-11-10T21:53:39.675Z,8.40
2022-11-10T21:56:06.744Z,8.40
2022-11-10T21:58:33.528Z,8.40
2022-11-10T22:01:00.996Z,8.40
2022-11-10T22:03:28.157Z,8.40
2022-11-10T22:05:54.705Z,8.30
2022-11-10T22:08:22.058Z,8.40
2022-11-10T22:11:07.395Z,8.30
2022-11-10T22:13:52.372Z,8.30
2022-11-10T22:16:41.157Z,8.30
2022-11-10T22:19:08.046Z,8.20
2022-11-10T22:21:34.700Z,8.20
2022-11-10T22:24:19.609Z,8.20
2022-11-10T22:26:46.175Z,8.20
2022-11-10T22:29:12.724Z,8.20
2022-11-10T22:31:39.270Z,8.20
2022-11-10T22:34:05.803Z,8.10
2022-11-10T22:36:32.471Z,8.10
2022-11-10T22:39:03.204Z,8.10
2022-11-10T22:41:48.688Z,8.10
2022-11-10T22:44:15.251Z,8.10
2022-11-10T22:46:42.818Z,8.10
2022-11-10T22:49:10.105Z,8.10
2022-11-10T22:51:37.203Z,8.00
2022-11-10T22:54:04.029Z,8.00
2022-11-10T22:56:30.778Z,8.00
2022-11-10T22:59:00.038Z,8.00
2022-11-10T23:01:27.101Z,8.00
2022-11-10T23:03:53.744Z,7.90
2022-11-10T23:06:20.638Z,7.90
2022-11-10T23:08:47.180Z,7.90
2022-11-10T23:11:14.723Z,7.90
2022-11-10T23:13:41.280Z,7.90
2022-11-10T23:16:09.111Z,7.80
2022-11-10T23:18:35.788Z,7.80
2022-11-10T23:21:03.442Z,7.80
2022-11-10T23:23:33.961Z,7.80
2022-11-10T23:26:01.386Z,7.80
2022-11-10T23:28:28.383Z,7.80
2022-11-10T23:30:55.218Z,7.70
2022-11-10T23:33:22.025Z,7.70
2022-11-10T23:35:48.951Z,7.60
2022-11-10T23:38:15.562Z,7.60
2022-11-10T23:40:42.120Z,7.60
2022-11-10T23:43:08.668Z,7.60
2022-11-10T23:46:04.814Z,7.60
2022-11-10T23:48:21.988Z,7.60
2022-11-10T23:50:48.786Z,7.60
2022-11-10T23:53:15.530Z,7.60
2022-11-10T23:55:42.058Z,7.60
2022-11-10T23:58:08.694Z,7.70
